sensor_id;sensor_type;location;lat;lon;timestamp;temperature;humidity
7648;DHT22;3866;48.020;11.720;2023-09-19T00:00:38;14.70;99.90
7648;DHT22;3866;48.020;11.720;2023-09-19T00:03:08;14.80;99.90
7648;DHT22;3866;48.020;11.720;2023-09-19T00:05:36;14.80;99.90
7648;DHT22;3866;48.020;11.720;2023-09-19T00:08:04;14.80;99.90
7648;DHT22;3866;48.020;11.720;2023-09-19T00:10:32;14.90;99.90
7648;DHT22;3866;48.020;11.720;2023-09-19T00:13:03;14.80;99.90
7648;DHT22;3866;48.020;11.720;2023-09-19T00:15:36;14.80;99.90
7648;DHT22;3866;48.020;11.720;2023-09-19T00:18:04;14.80;99.90
7648;DHT22;3866;48.020;11.720;2023-09-19T00:20:32;14.90;99.90
7648;DHT22;3866;48.020;11.720;2023-09-19T00:23:00;14.90;99.90
7648;DHT22;3866;48.020;11.720;2023-09-19T00:25:34;14.90;99.90
7648;DHT22;3866;48.020;11.720;2023-09-19T00:28:04;14.80;99.90
7648;DHT22;3866;48.020;11.720;2023-09-19T00:30:33;14.90;99.90
7648;DHT22;3866;48.020;11.720;2023-09-19T00:33:00;14.90;99.90
7648;DHT22;3866;48.020;11.720;2023-09-19T00:35:31;14.80;99.90
7648;DHT22;3866;48.020;11.720;2023-09-19T00:37:58;15.00;99.90
7648;DHT22;3866;48.020;11.720;2023-09-19T00:40:25;15.00;99.90
7648;DHT22;3866;48.020;11.720;2023-09-19T00:42:57;15.00;99.90
7648;DHT22;3866;48.020;11.720;2023-09-19T00:45:27;15.00;99.90
7648;DHT22;3866;48.020;11.720;2023-09-19T00:47:54;15.00;99.90
7648;DHT22;3866;48.020;11.720;2023-09-19T00:50:23;15.10;99.90
7648;DHT22;3866;48.020;11.720;2023-09-19T00:52:54;15.10;99.90
7648;DHT22;3866;48.020;11.720;2023-09-19T00:55:24;15.10;99.90
7648;DHT22;3866;48.020;11.720;2023-09-19T00:57:51;15.10;99.90
7648;DHT22;3866;48.020;11.720;2023-09-19T01:00:18;15.10;99.90
7648;DHT22;3866;48.020;11.720;2023-09-19T01:02:48;15.10;99.90
7648;DHT22;3866;48.020;11.720;2023-09-19T01:05:15;15.10;99.90
7648;DHT22;3866;48.020;11.720;2023-09-19T01:07:42;15.20;99.90
7648;DHT22;3866;48.020;11.720;2023-09-19T01:10:13;15.30;99.90
7648;DHT22;3866;48.020;11.720;2023-09-19T01:12:51;15.30;99.90
7648;DHT22;3866;48.020;11.720;2023-09-19T01:15:27;15.30;99.90
7648;DHT22;3866;48.020;11.720;2023-09-19T01:18:02;15.30;99.90
7648;DHT22;3866;48.020;11.720;2023-09-19T01:20:37;15.30;99.90
7648;DHT22;3866;48.020;11.720;2023-09-19T01:23:13;15.40;99.90
7648;DHT22;3866;48.020;11.720;2023-09-19T01:26:07;15.40;99.90
7648;DHT22;3866;48.020;11.720;2023-09-19T01:28:53;15.30;99.90
7648;DHT22;3866;48.020;11.720;2023-09-19T01:31:25;15.40;99.90
7648;DHT22;3866;48.020;11.720;2023-09-19T01:33:59;15.40;99.90
7648;DHT22;3866;48.020;11.720;2023-09-19T01:36:28;15.40;99.90
7648;DHT22;3866;48.020;11.720;2023-09-19T01:38:57;15.40;99.90
7648;DHT22;3866;48.020;11.720;2023-09-19T01:41:36;15.50;99.90
7648;DHT22;3866;48.020;11.720;2023-09-19T01:44:09;15.50;99.90
7648;DHT22;3866;48.020;11.720;2023-09-19T01:46:41;15.50;99.90
7648;DHT22;3866;48.020;11.720;2023-09-19T01:49:18;15.50;99.90
7648;DHT22;3866;48.020;11.720;2023-09-19T01:51:55;15.60;99.90
7648;DHT22;3866;48.020;11.720;2023-09-19T01:54:27;15.70;99.90
7648;DHT22;3866;48.020;11.720;2023-09-19T01:57:01;15.80;99.90
7648;DHT22;3866;48.020;11.720;2023-09-19T01:59:35;15.80;99.90
7648;DHT22;3866;48.020;11.720;2023-09-19T02:02:06;15.90;99.90
7648;DHT22;3866;48.020;11.720;2023-09-19T02:04:34;15.90;99.90
7648;DHT22;3866;48.020;11.720;2023-09-19T02:07:02;15.80;99.90
7648;DHT22;3866;48.020;11.720;2023-09-19T02:09:31;15.70;99.90
7648;DHT22;3866;48.020;11.720;2023-09-19T02:11:58;15.70;99.90
7648;DHT22;3866;48.020;11.720;2023-09-19T02:14:25;15.70;99.90
7648;DHT22;3866;48.020;11.720;2023-09-19T02:16:55;15.70;99.90
7648;DHT22;3866;48.020;11.720;2023-09-19T02:19:23;15.60;99.90
7648;DHT22;3866;48.020;11.720;2023-09-19T02:21:50;15.60;99.90
7648;DHT22;3866;48.020;11.720;2023-09-19T02:24:18;15.60;99.90
7648;DHT22;3866;48.020;11.720;2023-09-19T02:26:45;15.60;99.90
7648;DHT22;3866;48.020;11.720;2023-09-19T02:29:12;15.70;99.90
7648;DHT22;3866;48.020;11.720;2023-09-19T02:31:39;15.70;99.90
7648;DHT22;3866;48.020;11.720;2023-09-19T02:34:08;15.70;99.90
7648;DHT22;3866;48.020;11.720;2023-09-19T02:36:37;15.70;99.90
7648;DHT22;3866;48.020;11.720;2023-09-19T02:39:04;15.70;99.90
7648;DHT22;3866;48.020;11.720;2023-09-19T02:41:33;15.70;99.90
7648;DHT22;3866;48.020;11.720;2023-09-19T02:44:00;15.70;99.90
7648;DHT22;3866;48.020;11.720;2023-09-19T02:46:28;15.70;99.90
7648;DHT22;3866;48.020;11.720;2023-09-19T02:48:55;15.70;99.90
7648;DHT22;3866;48.020;11.720;2023-09-19T02:51:22;15.70;99.90
7648;DHT22;3866;48.020;11.720;2023-09-19T02:53:51;15.70;99.90
7648;DHT22;3866;48.020;11.720;2023-09-19T02:56:20;15.60;99.90
7648;DHT22;3866;48.020;11.720;2023-09-19T02:58:48;15.60;99.90
7648;DHT22;3866;48.020;11.720;2023-09-19T03:01:15;15.70;99.90
7648;DHT22;3866;48.020;11.720;2023-09-19T03:03:42;15.70;99.90
7648;DHT22;3866;48.020;11.720;2023-09-19T03:06:09;15.60;99.90
7648;DHT22;3866;48.020;11.720;2023-09-19T03:08:36;15.60;99.90
7648;DHT22;3866;48.020;11.720;2023-09-19T03:11:06;15.40;99.90
7648;DHT22;3866;48.020;11.720;2023-09-19T03:13:36;15.50;99.90
7648;DHT22;3866;48.020;11.720;2023-09-19T03:16:03;15.50;99.90
7648;DHT22;3866;48.020;11.720;2023-09-19T03:18:31;15.50;99.90
7648;DHT22;3866;48.020;11.720;2023-09-19T03:20:58;15.50;99.90
7648;DHT22;3866;48.020;11.720;2023-09-19T03:23:27;15.50;99.90
7648;DHT22;3866;48.020;11.720;2023-09-19T03:25:54;15.40;99.90
7648;DHT22;3866;48.020;11.720;2023-09-19T03:28:23;15.40;99.90
7648;DHT22;3866;48.020;11.720;2023-09-19T03:30:58;15.40;99.90
7648;DHT22;3866;48.020;11.720;2023-09-19T03:33:26;15.40;99.90
7648;DHT22;3866;48.020;11.720;2023-09-19T03:35:53;15.40;99.90
7648;DHT22;3866;48.020;11.720;2023-09-19T03:38:21;15.40;99.90
7648;DHT22;3866;48.020;11.720;2023-09-19T03:40:48;15.40;99.90
7648;DHT22;3866;48.020;11.720;2023-09-19T03:43:15;15.40;99.90
7648;DHT22;3866;48.020;11.720;2023-09-19T03:45:44;15.40;99.90
7648;DHT22;3866;48.020;11.720;2023-09-19T03:48:12;15.40;99.90
7648;DHT22;3866;48.020;11.720;2023-09-19T03:50:40;15.40;99.90
7648;DHT22;3866;48.020;11.720;2023-09-19T03:53:06;15.40;99.90
7648;DHT22;3866;48.020;11.720;2023-09-19T03:55:33;15.40;99.90
7648;DHT22;3866;48.020;11.720;2023-09-19T03:58:01;15.40;99.90
7648;DHT22;3866;48.020;11.720;2023-09-19T04:00:29;15.40;99.90
7648;DHT22;3866;48.020;11.720;2023-09-19T04:02:57;15.40;99.90
7648;DHT22;3866;48.020;11.720;2023-09-19T04:05:26;15.40;99.90
7648;DHT22;3866;48.020;11.720;2023-09-19T04:07:53;15.40;99.90
7648;DHT22;3866;48.020;11.720;2023-09-19T04:10:20;15.50;99.90
7648;DHT22;3866;48.020;11.720;2023-09-19T04:12:53;15.50;99.90
7648;DHT22;3866;48.020;11.720;2023-09-19T04:15:21;15.50;99.90
7648;DHT22;3866;48.020;11.720;2023-09-19T04:17:48;15.60;99.90
7648;DHT22;3866;48.020;11.720;2023-09-19T04:20:17;15.60;99.90
7648;DHT22;3866;48.020;11.720;2023-09-19T04:22:45;15.60;99.90
7648;DHT22;3866;48.020;11.720;2023-09-19T04:25:12;15.70;99.90
7648;DHT22;3866;48.020;11.720;2023-09-19T04:27:40;15.70;99.90
7648;DHT22;3866;48.020;11.720;2023-09-19T04:30:08;15.70;99.90
7648;DHT22;3866;48.020;11.720;2023-09-19T04:32:37;15.70;99.90
7648;DHT22;3866;48.020;11.720;2023-09-19T04:35:06;15.70;99.90
7648;DHT22;3866;48.020;11.720;2023-09-19T04:37:37;15.70;99.90
7648;DHT22;3866;48.020;11.720;2023-09-19T04:40:07;15.70;99.90
7648;DHT22;3866;48.020;11.720;2023-09-19T04:42:39;15.70;99.90
7648;DHT22;3866;48.020;11.720;2023-09-19T04:45:06;15.70;99.90
7648;DHT22;3866;48.020;11.720;2023-09-19T04:47:35;15.70;99.90
7648;DHT22;3866;48.020;11.720;2023-09-19T04:50:07;15.70;99.90
7648;DHT22;3866;48.020;11.720;2023-09-19T04:52:39;15.60;99.90
7648;DHT22;3866;48.020;11.720;2023-09-19T04:55:08;15.60;99.90
7648;DHT22;3866;48.020;11.720;2023-09-19T04:57:36;15.50;99.90
7648;DHT22;3866;48.020;11.720;2023-09-19T05:00:06;15.50;99.90
7648;DHT22;3866;48.020;11.720;2023-09-19T05:02:38;15.50;99.90
7648;DHT22;3866;48.020;11.720;2023-09-19T05:05:06;15.50;99.90
7648;DHT22;3866;48.020;11.720;2023-09-19T05:07:34;15.60;99.90
7648;DHT22;3866;48.020;11.720;2023-09-19T05:10:02;15.60;99.90
7648;DHT22;3866;48.020;11.720;2023-09-19T05:12:31;15.60;99.90
7648;DHT22;3866;48.020;11.720;2023-09-19T05:14:58;15.50;99.90
7648;DHT22;3866;48.020;11.720;2023-09-19T05:17:26;15.50;99.90
7648;DHT22;3866;48.020;11.720;2023-09-19T05:19:53;15.50;99.90
7648;DHT22;3866;48.020;11.720;2023-09-19T05:22:20;15.50;99.90
7648;DHT22;3866;48.020;11.720;2023-09-19T05:24:47;15.60;99.90
7648;DHT22;3866;48.020;11.720;2023-09-19T05:27:15;15.50;99.90
7648;DHT22;3866;48.020;11.720;2023-09-19T05:29:43;15.50;99.90
7648;DHT22;3866;48.020;11.720;2023-09-19T05:32:10;15.60;99.90
7648;DHT22;3866;48.020;11.720;2023-09-19T05:34:37;15.60;99.90
7648;DHT22;3866;48.020;11.720;2023-09-19T05:37:04;15.60;99.90
7648;DHT22;3866;48.020;11.720;2023-09-19T05:39:32;15.70;99.90
7648;DHT22;3866;48.020;11.720;2023-09-19T05:41:59;15.70;99.90
7648;DHT22;3866;48.020;11.720;2023-09-19T05:44:28;15.80;99.90
7648;DHT22;3866;48.020;11.720;2023-09-19T05:46:55;15.80;99.90
7648;DHT22;3866;48.020;11.720;2023-09-19T05:49:23;15.80;99.90
7648;DHT22;3866;48.020;11.720;2023-09-19T05:51:51;15.80;99.90
7648;DHT22;3866;48.020;11.720;2023-09-19T05:54:19;15.80;99.90
7648;DHT22;3866;48.020;11.720;2023-09-19T05:56:46;15.90;99.90
7648;DHT22;3866;48.020;11.720;2023-09-19T05:59:14;15.90;99.90
7648;DHT22;3866;48.020;11.720;2023-09-19T06:01:43;15.90;99.90
7648;DHT22;3866;48.020;11.720;2023-09-19T06:04:10;15.90;99.90
7648;DHT22;3866;48.020;11.720;2023-09-19T06:06:39;15.80;99.90
7648;DHT22;3866;48.020;11.720;2023-09-19T06:09:07;15.80;99.90
7648;DHT22;3866;48.020;11.720;2023-09-19T06:11:34;15.90;99.90
7648;DHT22;3866;48.020;11.720;2023-09-19T06:14:01;16.00;99.90
7648;DHT22;3866;48.020;11.720;2023-09-19T06:16:28;16.10;99.90
7648;DHT22;3866;48.020;11.720;2023-09-19T06:18:57;16.20;99.90
7648;DHT22;3866;48.020;11.720;2023-09-19T06:21:25;16.30;99.90
7648;DHT22;3866;48.020;11.720;2023-09-19T06:23:53;16.30;99.90
7648;DHT22;3866;48.020;11.720;2023-09-19T06:26:20;16.40;99.90
7648;DHT22;3866;48.020;11.720;2023-09-19T06:28:47;16.90;99.90
7648;DHT22;3866;48.020;11.720;2023-09-19T06:31:14;17.30;99.90
7648;DHT22;3866;48.020;11.720;2023-09-19T06:33:41;17.50;99.90
7648;DHT22;3866;48.020;11.720;2023-09-19T06:36:10;17.50;99.90
7648;DHT22;3866;48.020;11.720;2023-09-19T06:38:37;17.80;99.90
7648;DHT22;3866;48.020;11.720;2023-09-19T06:41:05;17.90;99.90
7648;DHT22;3866;48.020;11.720;2023-09-19T06:43:32;17.60;99.90
7648;DHT22;3866;48.020;11.720;2023-09-19T06:46:00;17.50;99.90
7648;DHT22;3866;48.020;11.720;2023-09-19T06:48:27;17.40;99.90
7648;DHT22;3866;48.020;11.720;2023-09-19T06:50:55;17.60;99.90
7648;DHT22;3866;48.020;11.720;2023-09-19T06:53:25;17.70;99.90
7648;DHT22;3866;48.020;11.720;2023-09-19T06:55:52;18.30;99.90
7648;DHT22;3866;48.020;11.720;2023-09-19T06:58:19;18.20;99.90
7648;DHT22;3866;48.020;11.720;2023-09-19T07:00:46;17.90;99.90
7648;DHT22;3866;48.020;11.720;2023-09-19T07:03:16;17.90;99.90
7648;DHT22;3866;48.020;11.720;2023-09-19T07:05:44;17.90;99.90
7648;DHT22;3866;48.020;11.720;2023-09-19T07:08:11;17.70;99.90
7648;DHT22;3866;48.020;11.720;2023-09-19T07:10:40;17.80;99.90
7648;DHT22;3866;48.020;11.720;2023-09-19T07:13:08;18.10;99.90
7648;DHT22;3866;48.020;11.720;2023-09-19T07:15:37;18.80;99.90
7648;DHT22;3866;48.020;11.720;2023-09-19T07:18:06;18.80;99.90
7648;DHT22;3866;48.020;11.720;2023-09-19T07:20:36;18.50;99.90
7648;DHT22;3866;48.020;11.720;2023-09-19T07:23:04;18.60;99.90
7648;DHT22;3866;48.020;11.720;2023-09-19T07:25:31;18.80;99.90
7648;DHT22;3866;48.020;11.720;2023-09-19T07:28:00;18.80;99.90
7648;DHT22;3866;48.020;11.720;2023-09-19T07:30:27;18.40;99.90
7648;DHT22;3866;48.020;11.720;2023-09-19T07:32:54;18.30;99.90
7648;DHT22;3866;48.020;11.720;2023-09-19T07:35:21;18.20;99.90
7648;DHT22;3866;48.020;11.720;2023-09-19T07:37:48;17.90;99.90
7648;DHT22;3866;48.020;11.720;2023-09-19T07:40:17;17.80;99.90
7648;DHT22;3866;48.020;11.720;2023-09-19T07:42:44;17.60;99.90
7648;DHT22;3866;48.020;11.720;2023-09-19T07:45:14;17.60;99.90
7648;DHT22;3866;48.020;11.720;2023-09-19T07:47:44;17.50;99.90
7648;DHT22;3866;48.020;11.720;2023-09-19T07:50:12;17.60;99.90
7648;DHT22;3866;48.020;11.720;2023-09-19T07:52:39;17.50;99.90
7648;DHT22;3866;48.020;11.720;2023-09-19T07:55:06;17.70;99.90
7648;DHT22;3866;48.020;11.720;2023-09-19T07:57:36;17.70;99.90
7648;DHT22;3866;48.020;11.720;2023-09-19T08:00:04;17.90;99.90
7648;DHT22;3866;48.020;11.720;2023-09-19T08:02:35;17.80;99.90
7648;DHT22;3866;48.020;11.720;2023-09-19T08:05:04;18.10;99.90
7648;DHT22;3866;48.020;11.720;2023-09-19T08:07:33;18.20;99.90
7648;DHT22;3866;48.020;11.720;2023-09-19T08:10:01;18.30;99.90
7648;DHT22;3866;48.020;11.720;2023-09-19T08:12:29;18.30;99.90
7648;DHT22;3866;48.020;11.720;2023-09-19T08:14:56;18.20;99.90
7648;DHT22;3866;48.020;11.720;2023-09-19T08:17:23;18.20;99.90
7648;DHT22;3866;48.020;11.720;2023-09-19T08:19:51;18.20;99.90
7648;DHT22;3866;48.020;11.720;2023-09-19T08:22:19;18.10;99.90
7648;DHT22;3866;48.020;11.720;2023-09-19T08:24:46;18.10;99.90
7648;DHT22;3866;48.020;11.720;2023-09-19T08:27:13;18.40;99.90
7648;DHT22;3866;48.020;11.720;2023-09-19T08:29:41;18.50;99.90
7648;DHT22;3866;48.020;11.720;2023-09-19T08:32:08;18.80;99.90
7648;DHT22;3866;48.020;11.720;2023-09-19T08:34:34;19.00;99.90
7648;DHT22;3866;48.020;11.720;2023-09-19T08:37:05;19.40;99.90
7648;DHT22;3866;48.020;11.720;2023-09-19T08:39:32;19.60;99.90
7648;DHT22;3866;48.020;11.720;2023-09-19T08:42:02;20.10;99.90
7648;DHT22;3866;48.020;11.720;2023-09-19T08:44:30;20.10;99.90
7648;DHT22;3866;48.020;11.720;2023-09-19T08:47:09;20.40;99.90
7648;DHT22;3866;48.020;11.720;2023-09-19T08:49:43;20.20;99.90
7648;DHT22;3866;48.020;11.720;2023-09-19T08:52:20;20.30;99.90
7648;DHT22;3866;48.020;11.720;2023-09-19T08:54:52;20.30;99.90
7648;DHT22;3866;48.020;11.720;2023-09-19T08:57:19;20.00;99.90
7648;DHT22;3866;48.020;11.720;2023-09-19T08:59:48;20.10;99.90
7648;DHT22;3866;48.020;11.720;2023-09-19T09:02:16;20.00;99.90
7648;DHT22;3866;48.020;11.720;2023-09-19T09:04:45;19.70;99.90
7648;DHT22;3866;48.020;11.720;2023-09-19T09:07:13;19.70;99.90
7648;DHT22;3866;48.020;11.720;2023-09-19T09:09:43;19.80;99.90
7648;DHT22;3866;48.020;11.720;2023-09-19T09:12:12;20.00;99.90
7648;DHT22;3866;48.020;11.720;2023-09-19T09:14:39;20.00;99.90
7648;DHT22;3866;48.020;11.720;2023-09-19T09:17:07;19.60;99.90
7648;DHT22;3866;48.020;11.720;2023-09-19T09:19:34;19.60;99.90
7648;DHT22;3866;48.020;11.720;2023-09-19T09:22:08;19.60;99.90
7648;DHT22;3866;48.020;11.720;2023-09-19T09:24:35;19.60;99.90
7648;DHT22;3866;48.020;11.720;2023-09-19T09:27:07;19.80;99.90
7648;DHT22;3866;48.020;11.720;2023-09-19T09:29:43;19.70;99.90
7648;DHT22;3866;48.020;11.720;2023-09-19T09:32:21;19.80;99.90
7648;DHT22;3866;48.020;11.720;2023-09-19T09:34:51;19.70;99.90
7648;DHT22;3866;48.020;11.720;2023-09-19T09:37:20;19.70;99.90
7648;DHT22;3866;48.020;11.720;2023-09-19T09:39:52;19.40;99.90
7648;DHT22;3866;48.020;11.720;2023-09-19T09:42:35;19.50;99.90
7648;DHT22;3866;48.020;11.720;2023-09-19T09:45:17;19.50;99.90
7648;DHT22;3866;48.020;11.720;2023-09-19T09:47:46;19.40;99.90
7648;DHT22;3866;48.020;11.720;2023-09-19T09:50:29;19.80;99.90
7648;DHT22;3866;48.020;11.720;2023-09-19T09:53:20;19.80;99.90
7648;DHT22;3866;48.020;11.720;2023-09-19T09:56:02;19.80;99.90
7648;DHT22;3866;48.020;11.720;2023-09-19T09:58:35;19.60;99.90
7648;DHT22;3866;48.020;11.720;2023-09-19T10:01:04;19.70;99.90
7648;DHT22;3866;48.020;11.720;2023-09-19T10:03:37;19.80;99.90
7648;DHT22;3866;48.020;11.720;2023-09-19T10:06:10;20.00;99.90
7648;DHT22;3866;48.020;11.720;2023-09-19T10:09:03;20.10;99.90
7648;DHT22;3866;48.020;11.720;2023-09-19T10:11:41;20.10;99.90
7648;DHT22;3866;48.020;11.720;2023-09-19T10:14:11;20.10;99.90
7648;DHT22;3866;48.020;11.720;2023-09-19T10:16:43;19.60;99.90
7648;DHT22;3866;48.020;11.720;2023-09-19T10:19:17;19.50;99.90
7648;DHT22;3866;48.020;11.720;2023-09-19T10:21:48;19.30;99.90
7648;DHT22;3866;48.020;11.720;2023-09-19T10:24:17;19.20;99.90
7648;DHT22;3866;48.020;11.720;2023-09-19T10:26:45;19.10;99.90
7648;DHT22;3866;48.020;11.720;2023-09-19T10:29:18;19.00;99.90
7648;DHT22;3866;48.020;11.720;2023-09-19T10:31:47;19.20;99.90
7648;DHT22;3866;48.020;11.720;2023-09-19T10:34:17;19.20;99.90
7648;DHT22;3866;48.020;11.720;2023-09-19T10:36:45;19.20;99.90
7648;DHT22;3866;48.020;11.720;2023-09-19T10:39:15;19.20;99.90
7648;DHT22;3866;48.020;11.720;2023-09-19T10:41:49;19.60;99.90
7648;DHT22;3866;48.020;11.720;2023-09-19T10:44:23;19.50;99.90
7648;DHT22;3866;48.020;11.720;2023-09-19T10:46:51;19.50;99.90
7648;DHT22;3866;48.020;11.720;2023-09-19T10:49:19;19.50;99.90
7648;DHT22;3866;48.020;11.720;2023-09-19T10:51:48;19.60;99.90
7648;DHT22;3866;48.020;11.720;2023-09-19T10:54:18;19.80;99.90
7648;DHT22;3866;48.020;11.720;2023-09-19T10:56:48;20.10;99.90
7648;DHT22;3866;48.020;11.720;2023-09-19T10:59:17;20.40;99.90
7648;DHT22;3866;48.020;11.720;2023-09-19T11:01:47;20.60;99.90
7648;DHT22;3866;48.020;11.720;2023-09-19T11:04:24;20.80;99.90
7648;DHT22;3866;48.020;11.720;2023-09-19T11:07:03;20.90;99.90
7648;DHT22;3866;48.020;11.720;2023-09-19T11:09:49;20.90;99.90
7648;DHT22;3866;48.020;11.720;2023-09-19T11:12:49;20.70;99.90
7648;DHT22;3866;48.020;11.720;2023-09-19T11:18:52;20.20;99.90
7648;DHT22;3866;48.020;11.720;2023-09-19T11:24:29;20.40;99.90
7648;DHT22;3866;48.020;11.720;2023-09-19T11:27:10;20.80;99.90
7648;DHT22;3866;48.020;11.720;2023-09-19T11:29:39;21.10;99.90
7648;DHT22;3866;48.020;11.720;2023-09-19T11:32:06;21.10;99.90
7648;DHT22;3866;48.020;11.720;2023-09-19T11:34:54;21.20;99.90
7648;DHT22;3866;48.020;11.720;2023-09-19T11:38:03;20.70;99.90
7648;DHT22;3866;48.020;11.720;2023-09-19T11:40:37;20.50;99.90
7648;DHT22;3866;48.020;11.720;2023-09-19T11:43:33;20.40;99.90
7648;DHT22;3866;48.020;11.720;2023-09-19T11:46:05;20.50;99.90
7648;DHT22;3866;48.020;11.720;2023-09-19T11:48:35;20.40;99.90
7648;DHT22;3866;48.020;11.720;2023-09-19T11:51:17;20.30;99.90
7648;DHT22;3866;48.020;11.720;2023-09-19T11:53:55;20.70;99.90
7648;DHT22;3866;48.020;11.720;2023-09-19T11:56:24;21.20;99.90
7648;DHT22;3866;48.020;11.720;2023-09-19T11:58:54;21.50;99.90
7648;DHT22;3866;48.020;11.720;2023-09-19T12:01:23;21.90;99.90
7648;DHT22;3866;48.020;11.720;2023-09-19T12:03:54;21.40;99.90
7648;DHT22;3866;48.020;11.720;2023-09-19T12:06:25;21.30;99.90
7648;DHT22;3866;48.020;11.720;2023-09-19T12:08:52;21.40;99.90
7648;DHT22;3866;48.020;11.720;2023-09-19T12:11:22;21.20;99.90
7648;DHT22;3866;48.020;11.720;2023-09-19T12:13:52;21.40;99.90
7648;DHT22;3866;48.020;11.720;2023-09-19T12:16:25;21.40;99.90
7648;DHT22;3866;48.020;11.720;2023-09-19T12:18:57;21.30;99.90
7648;DHT22;3866;48.020;11.720;2023-09-19T12:21:28;21.30;99.90
7648;DHT22;3866;48.020;11.720;2023-09-19T12:24:05;21.40;99.90
7648;DHT22;3866;48.020;11.720;2023-09-19T12:26:40;21.80;99.90
7648;DHT22;3866;48.020;11.720;2023-09-19T12:29:14;21.80;99.90
7648;DHT22;3866;48.020;11.720;2023-09-19T12:31:54;21.70;99.90
7648;DHT22;3866;48.020;11.720;2023-09-19T12:34:24;21.90;99.90
7648;DHT22;3866;48.020;11.720;2023-09-19T12:37:12;22.20;99.90
7648;DHT22;3866;48.020;11.720;2023-09-19T12:39:44;22.30;99.90
7648;DHT22;3866;48.020;11.720;2023-09-19T12:42:15;22.20;99.90
7648;DHT22;3866;48.020;11.720;2023-09-19T12:44:45;22.20;99.90
7648;DHT22;3866;48.020;11.720;2023-09-19T12:47:15;22.60;99.90
7648;DHT22;3866;48.020;11.720;2023-09-19T12:50:14;22.50;99.90
7648;DHT22;3866;48.020;11.720;2023-09-19T12:52:47;22.20;99.90
7648;DHT22;3866;48.020;11.720;2023-09-19T12:55:25;22.30;99.90
7648;DHT22;3866;48.020;11.720;2023-09-19T12:58:08;22.30;99.90
7648;DHT22;3866;48.020;11.720;2023-09-19T13:00:40;22.30;99.90
7648;DHT22;3866;48.020;11.720;2023-09-19T13:03:17;22.30;99.90
7648;DHT22;3866;48.020;11.720;2023-09-19T13:05:53;22.50;99.90
7648;DHT22;3866;48.020;11.720;2023-09-19T13:08:26;22.30;99.90
7648;DHT22;3866;48.020;11.720;2023-09-19T13:11:10;22.70;99.90
7648;DHT22;3866;48.020;11.720;2023-09-19T13:13:41;22.70;99.90
7648;DHT22;3866;48.020;11.720;2023-09-19T13:16:11;23.10;99.90
7648;DHT22;3866;48.020;11.720;2023-09-19T13:18:47;22.90;99.90
7648;DHT22;3866;48.020;11.720;2023-09-19T13:21:27;22.90;99.90
7648;DHT22;3866;48.020;11.720;2023-09-19T13:24:01;22.90;99.90
7648;DHT22;3866;48.020;11.720;2023-09-19T13:26:43;23.00;99.90
7648;DHT22;3866;48.020;11.720;2023-09-19T13:29:12;23.10;99.90
7648;DHT22;3866;48.020;11.720;2023-09-19T13:31:46;23.50;99.90
7648;DHT22;3866;48.020;11.720;2023-09-19T13:34:14;23.60;99.90
7648;DHT22;3866;48.020;11.720;2023-09-19T13:36:43;23.60;99.90
7648;DHT22;3866;48.020;11.720;2023-09-19T13:39:11;23.50;99.90
7648;DHT22;3866;48.020;11.720;2023-09-19T13:41:39;23.60;99.90
7648;DHT22;3866;48.020;11.720;2023-09-19T13:44:07;23.60;99.90
7648;DHT22;3866;48.020;11.720;2023-09-19T13:46:37;23.60;99.90
7648;DHT22;3866;48.020;11.720;2023-09-19T13:49:04;23.40;99.90
7648;DHT22;3866;48.020;11.720;2023-09-19T13:51:31;23.40;99.90
7648;DHT22;3866;48.020;11.720;2023-09-19T13:53:58;23.20;99.90
7648;DHT22;3866;48.020;11.720;2023-09-19T13:56:27;23.50;99.90
7648;DHT22;3866;48.020;11.720;2023-09-19T13:58:55;23.60;99.90
7648;DHT22;3866;48.020;11.720;2023-09-19T14:01:22;23.50;99.90
7648;DHT22;3866;48.020;11.720;2023-09-19T14:03:49;23.00;99.90
7648;DHT22;3866;48.020;11.720;2023-09-19T14:06:16;23.00;99.90
7648;DHT22;3866;48.020;11.720;2023-09-19T14:08:43;23.40;99.90
7648;DHT22;3866;48.020;11.720;2023-09-19T14:11:12;23.60;99.90
7648;DHT22;3866;48.020;11.720;2023-09-19T14:13:43;23.50;99.90
7648;DHT22;3866;48.020;11.720;2023-09-19T14:16:16;23.70;99.90
7648;DHT22;3866;48.020;11.720;2023-09-19T14:18:44;23.20;99.90
7648;DHT22;3866;48.020;11.720;2023-09-19T14:21:12;23.00;99.90
7648;DHT22;3866;48.020;11.720;2023-09-19T14:23:40;22.80;99.90
7648;DHT22;3866;48.020;11.720;2023-09-19T14:26:08;23.00;99.90
7648;DHT22;3866;48.020;11.720;2023-09-19T14:28:36;23.10;99.90
7648;DHT22;3866;48.020;11.720;2023-09-19T14:31:06;23.40;99.90
7648;DHT22;3866;48.020;11.720;2023-09-19T14:33:33;23.50;99.90
7648;DHT22;3866;48.020;11.720;2023-09-19T14:36:03;23.50;99.90
7648;DHT22;3866;48.020;11.720;2023-09-19T14:38:31;23.30;99.90
7648;DHT22;3866;48.020;11.720;2023-09-19T14:40:59;23.30;99.90
7648;DHT22;3866;48.020;11.720;2023-09-19T14:43:27;23.40;99.90
7648;DHT22;3866;48.020;11.720;2023-09-19T14:45:54;23.30;99.90
7648;DHT22;3866;48.020;11.720;2023-09-19T14:48:24;23.30;99.90
7648;DHT22;3866;48.020;11.720;2023-09-19T14:50:51;23.20;99.90
7648;DHT22;3866;48.020;11.720;2023-09-19T14:53:19;23.20;99.90
7648;DHT22;3866;48.020;11.720;2023-09-19T14:55:46;23.30;99.90
7648;DHT22;3866;48.020;11.720;2023-09-19T14:58:17;23.40;99.90
7648;DHT22;3866;48.020;11.720;2023-09-19T15:00:44;23.60;99.90
7648;DHT22;3866;48.020;11.720;2023-09-19T15:03:11;23.40;99.90
7648;DHT22;3866;48.020;11.720;2023-09-19T15:05:40;23.30;99.90
7648;DHT22;3866;48.020;11.720;2023-09-19T15:08:07;23.30;99.90
7648;DHT22;3866;48.020;11.720;2023-09-19T15:10:34;23.60;99.90
7648;DHT22;3866;48.020;11.720;2023-09-19T15:13:01;23.70;99.90
7648;DHT22;3866;48.020;11.720;2023-09-19T15:15:28;23.30;99.90
7648;DHT22;3866;48.020;11.720;2023-09-19T15:17:55;23.30;99.90
7648;DHT22;3866;48.020;11.720;2023-09-19T15:20:23;23.20;99.90
7648;DHT22;3866;48.020;11.720;2023-09-19T15:22:51;23.20;99.90
7648;DHT22;3866;48.020;11.720;2023-09-19T15:25:18;23.00;99.90
7648;DHT22;3866;48.020;11.720;2023-09-19T15:27:45;23.10;99.90
7648;DHT22;3866;48.020;11.720;2023-09-19T15:30:13;23.00;99.90
7648;DHT22;3866;48.020;11.720;2023-09-19T15:32:41;22.90;99.90
7648;DHT22;3866;48.020;11.720;2023-09-19T15:35:08;22.60;99.90
7648;DHT22;3866;48.020;11.720;2023-09-19T15:37:37;22.90;99.90
7648;DHT22;3866;48.020;11.720;2023-09-19T15:40:06;22.60;99.90
7648;DHT22;3866;48.020;11.720;2023-09-19T15:42:37;22.30;99.90
7648;DHT22;3866;48.020;11.720;2023-09-19T15:45:05;22.30;99.90
7648;DHT22;3866;48.020;11.720;2023-09-19T15:47:36;22.30;99.90
7648;DHT22;3866;48.020;11.720;2023-09-19T15:50:05;22.30;99.90
7648;DHT22;3866;48.020;11.720;2023-09-19T15:52:34;22.00;99.90
7648;DHT22;3866;48.020;11.720;2023-09-19T15:55:03;21.80;99.90
7648;DHT22;3866;48.020;11.720;2023-09-19T15:57:31;21.70;99.90
7648;DHT22;3866;48.020;11.720;2023-09-19T15:59:59;21.70;99.90
7648;DHT22;3866;48.020;11.720;2023-09-19T16:02:26;21.50;99.90
7648;DHT22;3866;48.020;11.720;2023-09-19T16:04:54;21.40;99.90
7648;DHT22;3866;48.020;11.720;2023-09-19T16:07:21;21.40;99.90
7648;DHT22;3866;48.020;11.720;2023-09-19T16:09:49;21.30;99.90